Time;durP1;ratioP1;P1;durP2;ratioP2;P2;SDS_P1;SDS_P2;PMS_P1;PMS_P2;Temp;Humidity;BMP_temperature;BMP_pressure;BME280_temperature;BME280_humidity;BME280_pressure;Samples;Min_cycle;Max_cycle;Signal;HPM_P1;HPM_P2
2023/06/08 00:01:20;;;;;;;10.95;9.73;;;;;;;;;;6226630;28;20060;-78
2023/06/08 00:04:22;;;;;;;10.85;9.75;;;;;;;;;;6231146;28;20052;-77
2023/06/08 00:07:24;;;;;;;11.88;10.38;;;;;;;;;;6222594;28;21261;-77
2023/06/08 00:10:26;;;;;;;12.55;10.77;;;;;;;;;;6222652;28;20053;-77
2023/06/08 00:13:28;;;;;;;11.20;10.00;;;;;;;;;;6218509;28;20045;-76
2023/06/08 00:16:29;;;;;;;11.13;10.02;;;;;;;;;;6223982;28;20049;-76
2023/06/08 00:19:33;;;;;;;12.45;10.00;;;;;;;;;;6230108;28;20049;-78
2023/06/08 00:22:36;;;;;;;9.50;8.50;;;;;;;;;;6222689;28;20049;-78
2023/06/08 00:25:39;;;;;;;10.85;9.05;;;;;;;;;;6220419;28;20053;-78
2023/06/08 00:28:40;;;;;;;10.85;9.38;;;;;;;;;;6222270;28;20052;-77
2023/06/08 00:31:42;;;;;;;12.00;9.45;;;;;;;;;;6226288;28;20038;-78
2023/06/08 00:34:44;;;;;;;13.32;10.88;;;;;;;;;;6223628;28;20049;-78
2023/06/08 00:37:46;;;;;;;12.43;11.23;;;;;;;;;;6223590;28;20049;-78
2023/06/08 00:40:47;;;;;;;12.10;10.90;;;;;;;;;;6217854;28;20048;-77
2023/06/08 00:43:49;;;;;;;11.65;10.45;;;;;;;;;;6210783;28;20038;-77
2023/06/08 00:46:51;;;;;;;10.38;9.35;;;;;;;;;;6212033;28;20057;-80
2023/06/08 00:49:53;;;;;;;11.63;9.30;;;;;;;;;;6226965;28;20523;-79
2023/06/08 00:52:56;;;;;;;11.13;9.20;;;;;;;;;;6224299;28;20449;-79
2023/06/08 00:55:58;;;;;;;9.82;8.68;;;;;;;;;;6223094;28;20445;-79
2023/06/08 00:59:02;;;;;;;10.80;9.25;;;;;;;;;;6218590;28;20049;-79
2023/06/08 01:02:06;;;;;;;10.32;9.25;;;;;;;;;;6218334;28;20475;-79
2023/06/08 01:05:09;;;;;;;9.90;8.90;;;;;;;;;;6227511;28;20118;-77
2023/06/08 01:08:32;;;;;;;9.68;8.70;;;;;;;;;;6239458;28;20419;-77
2023/06/08 01:12:10;;;;;;;10.77;9.68;;;;;;;;;;6232966;28;20459;-78
2023/06/08 01:15:18;;;;;;;10.10;8.85;;;;;;;;;;6229015;28;20049;-79
2023/06/08 01:18:23;;;;;;;11.55;9.13;;;;;;;;;;6211035;28;20376;-79
2023/06/08 01:21:49;;;;;;;12.13;9.27;;;;;;;;;;6222574;28;20042;-79
2023/06/08 01:24:52;;;;;;;11.75;10.05;;;;;;;;;;6223304;28;20040;-79
2023/06/08 01:28:12;;;;;;;12.80;9.57;;;;;;;;;;6227275;28;20053;-78
2023/06/08 01:31:13;;;;;;;10.48;9.35;;;;;;;;;;6235368;28;20686;-79
2023/06/08 01:34:15;;;;;;;12.75;10.77;;;;;;;;;;6230892;28;20048;-76
2023/06/08 01:37:43;;;;;;;11.68;10.23;;;;;;;;;;6223555;28;20041;-79
2023/06/08 01:40:49;;;;;;;13.07;10.63;;;;;;;;;;6232687;28;20042;-78
2023/06/08 01:43:52;;;;;;;11.13;9.57;;;;;;;;;;6230252;28;20045;-79
2023/06/08 01:46:56;;;;;;;10.05;9.00;;;;;;;;;;6222537;28;20125;-79
2023/06/08 01:50:00;;;;;;;10.07;9.07;;;;;;;;;;6232670;28;20049;-78
2023/06/08 01:53:02;;;;;;;10.63;9.52;;;;;;;;;;6227696;28;20123;-78
2023/06/08 01:56:04;;;;;;;11.88;10.63;;;;;;;;;;6230661;28;20415;-77
2023/06/08 01:59:07;;;;;;;13.05;10.35;;;;;;;;;;6226276;28;20164;-77
2023/06/08 02:02:09;;;;;;;13.45;11.27;;;;;;;;;;6229666;28;20045;-79
2023/06/08 02:05:12;;;;;;;13.32;10.95;;;;;;;;;;6246220;28;20046;-78
2023/06/08 02:08:14;;;;;;;12.50;10.85;;;;;;;;;;6237946;28;20419;-79
2023/06/08 02:11:16;;;;;;;17.00;12.00;;;;;;;;;;6232160;28;20119;-77
2023/06/08 02:14:17;;;;;;;14.40;11.52;;;;;;;;;;6226015;28;20133;-79
2023/06/08 02:17:25;;;;;;;13.35;11.57;;;;;;;;;;6227048;28;20038;-79
2023/06/08 02:20:33;;;;;;;11.82;10.50;;;;;;;;;;6227958;28;20080;-79
2023/06/08 02:23:34;;;;;;;15.68;12.10;;;;;;;;;;6231682;28;20194;-78
2023/06/08 02:26:36;;;;;;;14.52;12.48;;;;;;;;;;6230265;28;20128;-77
2023/06/08 02:29:39;;;;;;;13.25;11.73;;;;;;;;;;6247932;28;20045;-79
2023/06/08 02:32:41;;;;;;;17.77;12.68;;;;;;;;;;6235726;28;20038;-78
2023/06/08 02:35:46;;;;;;;15.75;12.68;;;;;;;;;;6232978;28;20508;-78
2023/06/08 02:38:49;;;;;;;15.75;11.77;;;;;;;;;;6237570;28;20057;-79
2023/06/08 02:41:52;;;;;;;14.20;11.90;;;;;;;;;;6267681;28;20114;-79
2023/06/08 02:44:54;;;;;;;15.68;12.10;;;;;;;;;;6223899;28;20058;-78
2023/06/08 02:47:57;;;;;;;15.85;13.18;;;;;;;;;;6241807;28;20511;-78
2023/06/08 02:50:59;;;;;;;;;;;;;;;;;;6241324;28;20060;-80
2023/06/08 02:54:01;;;;;;;14.48;11.50;;;;;;;;;;6241892;28;19921;-80
2023/06/08 02:57:03;;;;;;;13.95;11.25;;;;;;;;;;6255856;28;20060;-79
2023/06/08 03:00:12;;;;;;;13.20;10.50;;;;;;;;;;6252292;28;20049;-77
2023/06/08 03:03:48;;;;;;;13.25;11.02;;;;;;;;;;6244421;28;20575;-79
2023/06/08 03:06:53;;;;;;;16.00;10.90;;;;;;;;;;6257428;28;20049;-79
2023/06/08 03:09:57;;;;;;;11.75;10.30;;;;;;;;;;6233745;28;20045;-79
2023/06/08 03:13:00;;;;;;;13.60;11.60;;;;;;;;;;6229841;28;20058;-80
2023/06/08 03:16:05;;;;;;;13.60;11.75;;;;;;;;;;6231765;28;20041;-79
2023/06/08 03:19:07;;;;;;;16.48;11.35;;;;;;;;;;6225368;28;20046;-79
2023/06/08 03:22:10;;;;;;;14.80;11.20;;;;;;;;;;6235200;28;20208;-79
2023/06/08 03:25:28;;;;;;;12.07;10.80;;;;;;;;;;6221187;28;20050;-78
2023/06/08 03:28:30;;;;;;;12.43;11.13;;;;;;;;;;6231014;28;20474;-78
2023/06/08 03:31:36;;;;;;;12.68;11.32;;;;;;;;;;6224079;28;20449;-78
2023/06/08 03:34:44;;;;;;;12.48;11.13;;;;;;;;;;6217312;28;20054;-79
2023/06/08 03:37:47;;;;;;;16.15;11.93;;;;;;;;;;6244674;28;20056;-79
2023/06/08 03:40:49;;;;;;;13.88;12.07;;;;;;;;;;6232551;28;20184;-79
2023/06/08 03:43:51;;;;;;;;;;;;;;;;;;6222920;28;20045;-79
2023/06/08 03:46:57;;;;;;;14.10;12.00;;;;;;;;;;6229510;28;19939;-79
2023/06/08 03:50:02;;;;;;;11.88;9.85;;;;;;;;;;6225585;28;20046;-79
2023/06/08 03:53:04;;;;;;;12.52;10.63;;;;;;;;;;6226091;28;20034;-79
2023/06/08 03:56:06;;;;;;;14.30;10.52;;;;;;;;;;6210386;28;20112;-78
2023/06/08 03:59:12;;;;;;;12.02;10.73;;;;;;;;;;6229350;28;20045;-79
2023/06/08 04:02:15;;;;;;;;;;;;;;;;;;6233711;28;20072;-78
2023/06/08 04:05:18;;;;;;;15.60;10.73;;;;;;;;;;6217301;28;19928;-79
2023/06/08 04:08:22;;;;;;;13.00;11.30;;;;;;;;;;6218759;28;20499;-79
2023/06/08 04:11:26;;;;;;;14.65;12.20;;;;;;;;;;6201671;28;20052;-80
2023/06/08 04:14:30;;;;;;;16.95;13.18;;;;;;;;;;6216812;28;20046;-78
2023/06/08 04:17:33;;;;;;;13.80;11.77;;;;;;;;;;6268517;28;20048;-77
2023/06/08 04:20:36;;;;;;;13.70;11.50;;;;;;;;;;6219148;28;20049;-78
2023/06/08 04:23:38;;;;;;;14.13;11.50;;;;;;;;;;6219113;28;20400;-79
2023/06/08 04:26:42;;;;;;;12.18;10.88;;;;;;;;;;6220501;28;20416;-79
2023/06/08 04:29:45;;;;;;;12.77;11.35;;;;;;;;;;6225909;28;20672;-79
2023/06/08 04:32:47;;;;;;;12.60;11.00;;;;;;;;;;6226299;28;20092;-80
2023/06/08 04:35:50;;;;;;;13.20;10.65;;;;;;;;;;6211646;28;20050;-81
2023/06/08 04:38:53;;;;;;;;;;;;;;;;;;6222387;28;20042;-79
2023/06/08 04:41:57;;;;;;;15.90;11.40;;;;;;;;;;6223906;28;19921;-80
2023/06/08 04:45:03;;;;;;;12.98;11.18;;;;;;;;;;6208111;28;20053;-80
2023/06/08 04:48:07;;;;;;;14.30;12.02;;;;;;;;;;6225022;28;20508;-80
2023/06/08 04:51:10;;;;;;;16.30;12.32;;;;;;;;;;6220563;28;20065;-79
2023/06/08 04:54:17;;;;;;;14.63;12.95;;;;;;;;;;6232094;28;20420;-80
2023/06/08 04:57:21;;;;;;;14.77;13.20;;;;;;;;;;6230681;28;20042;-81
2023/06/08 05:00:23;;;;;;;15.35;13.27;;;;;;;;;;6228802;28;20046;-79
2023/06/08 05:03:25;;;;;;;14.52;12.35;;;;;;;;;;6221858;28;20045;-81
2023/06/08 05:06:27;;;;;;;13.10;11.75;;;;;;;;;;6221223;28;20050;-81
2023/06/08 05:09:29;;;;;;;14.27;12.75;;;;;;;;;;6229293;28;20175;-80
2023/06/08 05:12:31;;;;;;;16.83;12.97;;;;;;;;;;6236048;28;20068;-80
2023/06/08 05:15:35;;;;;;;15.93;12.90;;;;;;;;;;6226857;28;20045;-80
2023/06/08 05:18:38;;;;;;;15.38;12.63;;;;;;;;;;6223223;28;20053;-80
2023/06/08 05:21:41;;;;;;;13.85;11.85;;;;;;;;;;6223795;28;20396;-78
2023/06/08 05:24:43;;;;;;;13.65;12.00;;;;;;;;;;6223508;28;20055;-78
2023/06/08 05:27:45;;;;;;;12.43;11.13;;;;;;;;;;6219124;28;20045;-80
2023/06/08 05:30:47;;;;;;;12.83;11.40;;;;;;;;;;6220522;28;20049;-79
2023/06/08 05:33:48;;;;;;;12.68;11.15;;;;;;;;;;6225606;28;20102;-80
2023/06/08 05:36:51;;;;;;;13.65;10.93;;;;;;;;;;6215907;28;20041;-80
2023/06/08 05:39:52;;;;;;;12.40;11.10;;;;;;;;;;6222893;28;20053;-79
2023/06/08 05:42:54;;;;;;;12.60;11.30;;;;;;;;;;6217585;28;20053;-79
2023/06/08 05:45:56;;;;;;;12.55;11.05;;;;;;;;;;6222935;28;20045;-79
2023/06/08 05:48:57;;;;;;;11.85;10.30;;;;;;;;;;6223217;28;20042;-79
2023/06/08 05:52:00;;;;;;;11.70;10.50;;;;;;;;;;6233231;28;20046;-79
2023/06/08 05:55:01;;;;;;;11.67;10.47;;;;;;;;;;6228382;28;20053;-80
2023/06/08 05:58:03;;;;;;;12.18;10.20;;;;;;;;;;6225655;28;20049;-80
2023/06/08 06:01:06;;;;;;;10.95;9.52;;;;;;;;;;6221246;28;20045;-80
2023/06/08 06:04:07;;;;;;;12.50;9.23;;;;;;;;;;6223019;28;20049;-79
2023/06/08 06:07:27;;;;;;;10.35;9.35;;;;;;;;;;6197371;28;20550;-80
2023/06/08 06:10:28;;;;;;;11.75;9.20;;;;;;;;;;6225975;28;20053;-79
2023/06/08 06:13:34;;;;;;;10.80;8.80;;;;;;;;;;6234518;28;20049;-79
2023/06/08 06:16:35;;;;;;;10.10;9.07;;;;;;;;;;6233046;28;20042;-78
2023/06/08 06:19:38;;;;;;;10.25;8.70;;;;;;;;;;6226992;28;20044;-79
2023/06/08 06:22:40;;;;;;;;;;;;;;;;;;6219144;28;20064;-79
2023/06/08 06:25:48;;;;;;;10.00;8.75;;;;;;;;;;6227461;28;20165;-78
2023/06/08 06:28:49;;;;;;;8.65;7.50;;;;;;;;;;6237324;28;20462;-77
2023/06/08 06:31:51;;;;;;;8.55;7.72;;;;;;;;;;6239323;28;20049;-79
2023/06/08 06:34:53;;;;;;;8.70;7.80;;;;;;;;;;6223014;28;20069;-79
2023/06/08 06:37:55;;;;;;;8.75;7.93;;;;;;;;;;6225409;28;20529;-79
2023/06/08 06:40:57;;;;;;;9.55;8.57;;;;;;;;;;6224387;28;20054;-79
2023/06/08 06:43:59;;;;;;;9.70;8.70;;;;;;;;;;6227888;28;20045;-80
2023/06/08 06:47:00;;;;;;;9.35;8.38;;;;;;;;;;6228355;28;20049;-79
2023/06/08 06:50:02;;;;;;;9.45;7.65;;;;;;;;;;6228198;28;20056;-79
2023/06/08 06:53:05;;;;;;;9.00;8.10;;;;;;;;;;6228989;28;20260;-78
2023/06/08 06:56:06;;;;;;;8.57;7.68;;;;;;;;;;6229145;28;20060;-77
2023/06/08 06:59:09;;;;;;;8.90;8.00;;;;;;;;;;6230473;28;20133;-78
2023/06/08 07:02:10;;;;;;;8.95;8.05;;;;;;;;;;6224476;28;20061;-79
2023/06/08 07:05:12;;;;;;;9.67;8.30;;;;;;;;;;6221541;28;20397;-78
2023/06/08 07:08:14;;;;;;;8.85;7.95;;;;;;;;;;6228311;28;20044;-78
2023/06/08 07:11:16;;;;;;;8.88;7.97;;;;;;;;;;6222878;28;20042;-78
2023/06/08 07:14:19;;;;;;;8.75;7.95;;;;;;;;;;6218815;28;20411;-77
2023/06/08 07:17:20;;;;;;;8.80;7.90;;;;;;;;;;6222716;28;20081;-79
2023/06/08 07:20:22;;;;;;;9.73;8.57;;;;;;;;;;6221530;28;20073;-80
2023/06/08 07:23:24;;;;;;;8.73;7.93;;;;;;;;;;6222122;28;20038;-78
2023/06/08 07:26:46;;;;;;;9.25;7.70;;;;;;;;;;6220833;28;20221;-77
2023/06/08 07:29:48;;;;;;;8.98;8.10;;;;;;;;;;6220332;28;20124;-79
2023/06/08 07:32:49;;;;;;;9.27;7.68;;;;;;;;;;6219198;28;20089;-79
2023/06/08 07:35:51;;;;;;;8.95;8.05;;;;;;;;;;6224255;28;20042;-79
2023/06/08 07:38:56;;;;;;;8.43;7.47;;;;;;;;;;6224640;28;20160;-79
2023/06/08 07:41:58;;;;;;;9.68;8.18;;;;;;;;;;6225533;28;20216;-79
2023/06/08 07:45:00;;;;;;;8.10;7.40;;;;;;;;;;6226898;28;20065;-78
2023/06/08 07:48:02;;;;;;;10.00;7.88;;;;;;;;;;6223540;28;20054;-81
2023/06/08 07:51:04;;;;;;;8.77;8.07;;;;;;;;;;6221748;28;20136;-78
2023/06/08 07:54:06;;;;;;;8.25;7.45;;;;;;;;;;6228745;28;20123;-80
2023/06/08 07:57:08;;;;;;;9.18;8.30;;;;;;;;;;6215478;28;20037;-78
2023/06/08 08:00:10;;;;;;;8.73;7.93;;;;;;;;;;6227915;28;20042;-79
2023/06/08 08:03:16;;;;;;;9.93;8.40;;;;;;;;;;6226989;28;20061;-79
2023/06/08 08:06:18;;;;;;;8.83;7.43;;;;;;;;;;6222600;28;20037;-79
2023/06/08 08:09:20;;;;;;;9.10;7.97;;;;;;;;;;6228041;28;20049;-78
2023/06/08 08:12:22;;;;;;;8.57;7.80;;;;;;;;;;6222599;28;20041;-78
2023/06/08 08:15:23;;;;;;;8.10;7.40;;;;;;;;;;6252076;28;20058;-78
2023/06/08 08:18:25;;;;;;;8.20;7.50;;;;;;;;;;6220492;28;20050;-79
2023/06/08 08:21:27;;;;;;;8.43;7.72;;;;;;;;;;6205629;28;20435;-79
2023/06/08 08:24:28;;;;;;;9.77;8.00;;;;;;;;;;6222693;28;20045;-79
2023/06/08 08:27:30;;;;;;;8.07;7.32;;;;;;;;;;6238933;28;20508;-79
2023/06/08 08:30:32;;;;;;;8.93;8.05;;;;;;;;;;6226217;28;20450;-78
2023/06/08 08:33:34;;;;;;;8.80;7.67;;;;;;;;;;6240414;28;20056;-78
2023/06/08 08:36:37;;;;;;;9.32;8.52;;;;;;;;;;6216879;28;20046;-78
2023/06/08 08:39:38;;;;;;;8.25;7.50;;;;;;;;;;6226223;28;20049;-77
2023/06/08 08:43:06;;;;;;;8.80;7.90;;;;;;;;;;6223095;28;20172;-78
2023/06/08 08:46:09;;;;;;;8.43;7.63;;;;;;;;;;6250701;28;20045;-77
2023/06/08 08:49:15;;;;;;;7.85;7.15;;;;;;;;;;6225877;28;20704;-78
2023/06/08 08:52:19;;;;;;;8.48;7.72;;;;;;;;;;6224568;28;20033;-79
2023/06/08 08:55:27;;;;;;;9.13;7.30;;;;;;;;;;6219344;28;20038;-79
2023/06/08 08:58:38;;;;;;;8.43;7.55;;;;;;;;;;6224573;28;20396;-80
2023/06/08 09:01:40;;;;;;;8.70;7.90;;;;;;;;;;6209141;28;20053;-79
2023/06/08 09:04:44;;;;;;;9.18;8.05;;;;;;;;;;6212253;28;20076;-78
2023/06/08 09:07:46;;;;;;;9.52;7.95;;;;;;;;;;6219329;28;20073;-80
2023/06/08 09:11:06;;;;;;;8.40;7.40;;;;;;;;;;6220093;28;20101;-80
2023/06/08 09:14:09;;;;;;;9.45;8.25;;;;;;;;;;6223745;28;20049;-78
2023/06/08 09:17:28;;;;;;;9.00;8.05;;;;;;;;;;6209793;28;20077;-75
2023/06/08 09:20:33;;;;;;;16.02;14.20;;;;;;;;;;6222886;28;20468;-79
2023/06/08 09:23:35;;;;;;;11.15;9.25;;;;;;;;;;6218481;28;20041;-78
2023/06/08 09:26:38;;;;;;;8.88;7.82;;;;;;;;;;6203639;28;20037;-78
2023/06/08 09:29:40;;;;;;;9.68;8.57;;;;;;;;;;6220587;28;20049;-78
2023/06/08 09:32:43;;;;;;;8.88;7.68;;;;;;;;;;6221564;28;20053;-78
2023/06/08 09:35:46;;;;;;;;;;;;;;;;;;6223886;28;20057;-78
2023/06/08 09:38:55;;;;;;;8.85;7.68;;;;;;;;;;6219162;28;19922;-76
2023/06/08 09:41:58;;;;;;;7.97;7.22;;;;;;;;;;6236154;28;20057;-78
2023/06/08 09:45:08;;;;;;;7.93;7.23;;;;;;;;;;6221682;28;20057;-76
2023/06/08 09:48:14;;;;;;;8.48;7.60;;;;;;;;;;6222435;28;20121;-77
2023/06/08 09:51:17;;;;;;;8.43;7.60;;;;;;;;;;6238686;28;20052;-77
2023/06/08 09:54:20;;;;;;;8.07;7.25;;;;;;;;;;6225134;28;20515;-79
2023/06/08 09:57:22;;;;;;;9.63;7.20;;;;;;;;;;6228623;28;20053;-78
2023/06/08 10:00:26;;;;;;;11.98;10.80;;;;;;;;;;6227433;28;20045;-81
2023/06/08 10:03:33;;;;;;;7.40;6.80;;;;;;;;;;6220646;28;20052;-78
2023/06/08 10:06:36;;;;;;;7.35;6.65;;;;;;;;;;6210399;28;20052;-79
2023/06/08 10:09:45;;;;;;;8.02;7.30;;;;;;;;;;6230025;28;20534;-79
2023/06/08 10:12:50;;;;;;;8.07;7.25;;;;;;;;;;6223456;28;20052;-77
2023/06/08 10:15:54;;;;;;;7.63;6.75;;;;;;;;;;6211592;28;20042;-77
2023/06/08 10:19:02;;;;;;;7.93;7.13;;;;;;;;;;6233380;28;20038;-77
2023/06/08 10:22:04;;;;;;;7.00;6.32;;;;;;;;;;6223181;28;20049;-76
2023/06/08 10:25:07;;;;;;;17.05;13.32;;;;;;;;;;6220058;28;20041;-76
2023/06/08 10:28:10;;;;;;;16.00;9.98;;;;;;;;;;6224489;28;20057;-77
2023/06/08 10:31:32;;;;;;;12.77;10.32;;;;;;;;;;6217240;28;20415;-77
2023/06/08 10:34:40;;;;;;;8.68;6.88;;;;;;;;;;6220813;28;20049;-77
2023/06/08 10:37:44;;;;;;;7.95;6.70;;;;;;;;;;6239621;28;20042;-75
2023/06/08 10:40:50;;;;;;;9.80;8.60;;;;;;;;;;6221445;28;20046;-77
2023/06/08 10:43:58;;;;;;;8.93;7.75;;;;;;;;;;6221851;28;20049;-76
2023/06/08 10:47:08;;;;;;;8.90;8.05;;;;;;;;;;6209180;28;20045;-77
2023/06/08 10:50:10;;;;;;;9.20;8.32;;;;;;;;;;6224736;28;20042;-77
2023/06/08 10:53:12;;;;;;;;;;;;;;;;;;6228865;28;20072;-77
2023/06/08 10:56:16;;;;;;;8.57;7.72;;;;;;;;;;6224241;28;19921;-76
2023/06/08 10:59:28;;;;;;;46.83;31.42;;;;;;;;;;6225025;28;20117;-76
2023/06/08 11:02:30;;;;;;;7.10;6.35;;;;;;;;;;6238351;28;20057;-77
2023/06/08 11:05:33;;;;;;;6.97;6.38;;;;;;;;;;6221801;28;20079;-75
2023/06/08 11:08:34;;;;;;;6.13;5.60;;;;;;;;;;6225279;28;20059;-77
2023/06/08 11:11:48;;;;;;;6.50;5.93;;;;;;;;;;6216789;28;20049;-77
2023/06/08 11:14:50;;;;;;;6.43;5.93;;;;;;;;;;6223207;28;20038;-75
2023/06/08 11:17:58;;;;;;;6.68;6.07;;;;;;;;;;6228008;28;20050;-77
2023/06/08 11:21:00;;;;;;;6.45;5.95;;;;;;;;;;6222692;28;20431;-75
2023/06/08 11:24:02;;;;;;;6.97;6.28;;;;;;;;;;6219555;28;20053;-77
2023/06/08 11:27:04;;;;;;;6.30;5.72;;;;;;;;;;6218413;28;20042;-75
2023/06/08 11:30:08;;;;;;;6.32;5.72;;;;;;;;;;6249871;28;20096;-75
2023/06/08 11:33:14;;;;;;;6.40;5.80;;;;;;;;;;6221726;28;20127;-76
2023/06/08 11:36:17;;;;;;;7.00;5.85;;;;;;;;;;6221796;28;20076;-76
2023/06/08 11:39:19;;;;;;;7.15;6.45;;;;;;;;;;6215448;28;20058;-76
2023/06/08 11:42:21;;;;;;;5.97;5.47;;;;;;;;;;6221988;28;20041;-76
2023/06/08 11:45:23;;;;;;;6.10;5.53;;;;;;;;;;6227893;28;20041;-77
2023/06/08 11:48:25;;;;;;;5.65;5.25;;;;;;;;;;6226114;28;20415;-77
2023/06/08 11:51:27;;;;;;;5.60;5.10;;;;;;;;;;6227112;28;20111;-77
2023/06/08 11:54:33;;;;;;;6.00;5.50;;;;;;;;;;6229448;28;20042;-77
2023/06/08 11:57:53;;;;;;;5.63;5.13;;;;;;;;;;6223203;28;20064;-77
2023/06/08 12:01:08;;;;;;;5.03;4.53;;;;;;;;;;6221569;28;20813;-77
2023/06/08 12:04:14;;;;;;;5.30;4.80;;;;;;;;;;6222336;28;20388;-76
2023/06/08 12:07:16;;;;;;;5.35;4.85;;;;;;;;;;6219877;28;20049;-75
2023/06/08 12:10:18;;;;;;;5.18;4.72;;;;;;;;;;6219108;28;20045;-77
2023/06/08 12:13:19;;;;;;;5.93;5.00;;;;;;;;;;6220990;28;20049;-77
2023/06/08 12:16:22;;;;;;;7.65;5.20;;;;;;;;;;6221143;28;20065;-77
2023/06/08 12:19:28;;;;;;;5.95;5.43;;;;;;;;;;6222936;28;20069;-77
2023/06/08 12:22:30;;;;;;;5.20;4.80;;;;;;;;;;6219620;28;20045;-77
2023/06/08 12:25:33;;;;;;;5.30;4.90;;;;;;;;;;6222013;28;20427;-77
2023/06/08 12:28:34;;;;;;;6.82;5.63;;;;;;;;;;6196474;28;20093;-78
2023/06/08 12:31:36;;;;;;;5.68;5.18;;;;;;;;;;6219567;28;20070;-78
2023/06/08 12:34:38;;;;;;;5.47;4.97;;;;;;;;;;6224600;28;20041;-77
2023/06/08 12:37:40;;;;;;;5.25;4.80;;;;;;;;;;6221621;28;20512;-76
2023/06/08 12:40:47;;;;;;;5.28;4.88;;;;;;;;;;6216173;28;20045;-76
2023/06/08 12:43:50;;;;;;;5.38;4.93;;;;;;;;;;6227523;28;20069;-79
2023/06/08 12:46:52;;;;;;;6.13;5.32;;;;;;;;;;6227246;28;20543;-78
2023/06/08 12:49:54;;;;;;;5.28;4.88;;;;;;;;;;6226287;28;20101;-77
2023/06/08 12:52:55;;;;;;;4.95;4.63;;;;;;;;;;6222869;28;20046;-77
2023/06/08 12:55:57;;;;;;;5.38;4.95;;;;;;;;;;6209704;28;20056;-77
2023/06/08 12:58:59;;;;;;;5.30;4.90;;;;;;;;;;6224712;28;20049;-77
2023/06/08 13:02:01;;;;;;;5.25;4.70;;;;;;;;;;6222246;28;20076;-76
2023/06/08 13:05:03;;;;;;;5.03;4.63;;;;;;;;;;6224756;28;20057;-77
2023/06/08 13:08:06;;;;;;;4.95;4.55;;;;;;;;;;6222841;28;20064;-76
2023/06/08 13:11:08;;;;;;;5.15;4.75;;;;;;;;;;6195507;28;20049;-77
2023/06/08 13:14:10;;;;;;;5.32;4.82;;;;;;;;;;6222060;28;20040;-77
2023/06/08 13:17:11;;;;;;;5.05;4.63;;;;;;;;;;6221978;28;20057;-74
2023/06/08 13:20:13;;;;;;;5.45;5.00;;;;;;;;;;6221094;28;20139;-75
2023/06/08 13:23:16;;;;;;;5.28;4.88;;;;;;;;;;6209608;28;20188;-75
2023/06/08 13:26:18;;;;;;;5.93;5.43;;;;;;;;;;6216894;28;20140;-75
2023/06/08 13:29:21;;;;;;;5.15;4.70;;;;;;;;;;6220518;28;20054;-76
2023/06/08 13:32:22;;;;;;;5.50;5.00;;;;;;;;;;6222047;28;20082;-76
2023/06/08 13:35:24;;;;;;;6.15;5.10;;;;;;;;;;6220716;28;20045;-77
2023/06/08 13:38:26;;;;;;;5.55;5.00;;;;;;;;;;6211606;28;20050;-75
2023/06/08 13:41:33;;;;;;;5.70;5.20;;;;;;;;;;6203047;28;20053;-75
2023/06/08 13:44:34;;;;;;;5.82;5.32;;;;;;;;;;6218189;28;20041;-76
2023/06/08 13:47:37;;;;;;;6.18;5.53;;;;;;;;;;6215650;28;20046;-76
2023/06/08 13:50:39;;;;;;;6.45;5.80;;;;;;;;;;6206657;28;20515;-75
2023/06/08 13:53:40;;;;;;;6.15;5.57;;;;;;;;;;6211623;28;20073;-74
2023/06/08 13:56:42;;;;;;;6.97;6.28;;;;;;;;;;6216819;28;20065;-77
2023/06/08 13:59:44;;;;;;;8.05;6.82;;;;;;;;;;6222732;28;20050;-75
2023/06/08 14:02:47;;;;;;;7.65;7.05;;;;;;;;;;6214601;28;20479;-74
2023/06/08 14:05:49;;;;;;;6.70;6.05;;;;;;;;;;6219950;28;20042;-75
2023/06/08 14:08:50;;;;;;;6.30;5.80;;;;;;;;;;6222985;28;20045;-76
2023/06/08 14:11:52;;;;;;;6.43;5.93;;;;;;;;;;6198215;28;20642;-75
2023/06/08 14:14:54;;;;;;;6.67;6.07;;;;;;;;;;6200469;28;20046;-77
2023/06/08 14:17:57;;;;;;;6.17;5.67;;;;;;;;;;6232818;28;20955;-76
2023/06/08 14:20:58;;;;;;;6.65;6.05;;;;;;;;;;6216822;28;20451;-77
2023/06/08 14:24:00;;;;;;;6.20;5.60;;;;;;;;;;6220604;28;20046;-77
2023/06/08 14:27:02;;;;;;;6.27;5.73;;;;;;;;;;6218739;28;20453;-74
2023/06/08 14:30:05;;;;;;;6.57;5.88;;;;;;;;;;6228762;28;20048;-73
2023/06/08 14:33:11;;;;;;;6.65;6.05;;;;;;;;;;6210866;28;20048;-73
2023/06/08 14:36:13;;;;;;;6.50;5.90;;;;;;;;;;6215480;28;20049;-72
2023/06/08 14:39:15;;;;;;;7.50;6.80;;;;;;;;;;6224258;28;20508;-71
2023/06/08 14:42:19;;;;;;;;;;;;;;;;;;6214007;28;20057;-72
2023/06/08 14:45:23;;;;;;;6.65;6.05;;;;;;;;;;6209641;28;20396;-72
2023/06/08 14:48:25;;;;;;;6.37;5.87;;;;;;;;;;6220262;28;20046;-73
2023/06/08 14:51:27;;;;;;;7.87;6.23;;;;;;;;;;6220044;28;20062;-76
2023/06/08 14:54:36;;;;;;;6.57;5.93;;;;;;;;;;6215177;28;20499;-75
2023/06/08 14:57:38;;;;;;;7.43;6.68;;;;;;;;;;6221048;28;20124;-78
2023/06/08 15:00:40;;;;;;;6.85;6.15;;;;;;;;;;6208161;28;20123;-77
2023/06/08 15:03:43;;;;;;;7.32;6.63;;;;;;;;;;6229836;28;20049;-76
2023/06/08 15:06:44;;;;;;;6.80;6.20;;;;;;;;;;6227481;28;20145;-77
2023/06/08 15:09:49;;;;;;;8.32;6.70;;;;;;;;;;6193879;28;20059;-77
2023/06/08 15:12:51;;;;;;;7.43;6.72;;;;;;;;;;6220177;28;20045;-78
2023/06/08 15:15:54;;;;;;;7.10;6.40;;;;;;;;;;6228230;28;20045;-77
2023/06/08 15:18:57;;;;;;;6.95;6.28;;;;;;;;;;6222923;28;20504;-77
2023/06/08 15:22:00;;;;;;;6.90;6.30;;;;;;;;;;6204627;28;20046;-77
2023/06/08 15:25:03;;;;;;;7.03;6.32;;;;;;;;;;6217705;28;20401;-76
2023/06/08 15:28:05;;;;;;;7.18;6.47;;;;;;;;;;6223344;28;20175;-80
2023/06/08 15:31:06;;;;;;;6.85;6.15;;;;;;;;;;6214601;28;20049;-77
2023/06/08 15:34:08;;;;;;;6.97;6.15;;;;;;;;;;6220798;28;20405;-77
2023/06/08 15:37:10;;;;;;;7.23;6.43;;;;;;;;;;6206349;28;20412;-77
2023/06/08 15:40:17;;;;;;;7.72;6.93;;;;;;;;;;6218616;28;20092;-77
2023/06/08 15:43:19;;;;;;;7.68;6.53;;;;;;;;;;6234647;28;20049;-78
2023/06/08 15:46:22;;;;;;;7.73;7.03;;;;;;;;;;6224566;28;20061;-78
2023/06/08 15:49:24;;;;;;;7.90;6.80;;;;;;;;;;6217695;28;20060;-79
2023/06/08 15:52:26;;;;;;;7.72;6.93;;;;;;;;;;6230197;28;20054;-77
2023/06/08 15:55:28;;;;;;;7.60;6.90;;;;;;;;;;6232437;28;20080;-77
2023/06/08 15:58:30;;;;;;;7.40;6.70;;;;;;;;;;6222971;28;20399;-77
2023/06/08 16:01:32;;;;;;;7.68;6.90;;;;;;;;;;6218351;28;20054;-78
2023/06/08 16:04:34;;;;;;;6.53;5.90;;;;;;;;;;6215614;28;20125;-78
2023/06/08 16:07:36;;;;;;;6.63;6.03;;;;;;;;;;6217575;28;20049;-79
2023/06/08 16:10:38;;;;;;;6.03;5.50;;;;;;;;;;6217388;28;20054;-78
2023/06/08 16:13:39;;;;;;;6.07;5.47;;;;;;;;;;6220367;28;20049;-78
2023/06/08 16:16:41;;;;;;;6.22;5.70;;;;;;;;;;6214970;28;20519;-78
2023/06/08 16:19:43;;;;;;;5.97;5.47;;;;;;;;;;6203366;28;20045;-76
2023/06/08 16:22:44;;;;;;;6.60;6.00;;;;;;;;;;6247361;28;20128;-79
2023/06/08 16:25:46;;;;;;;6.20;5.60;;;;;;;;;;6218399;28;20053;-78
2023/06/08 16:28:48;;;;;;;6.78;6.00;;;;;;;;;;6216241;28;20427;-77
2023/06/08 16:31:50;;;;;;;6.30;5.70;;;;;;;;;;6218553;28;20825;-75
2023/06/08 16:34:52;;;;;;;6.68;5.35;;;;;;;;;;6207846;28;20053;-78
2023/06/08 16:37:55;;;;;;;5.87;5.37;;;;;;;;;;6207109;28;20054;-78
2023/06/08 16:40:56;;;;;;;5.80;5.20;;;;;;;;;;6221082;28;20053;-78
2023/06/08 16:43:58;;;;;;;5.70;5.20;;;;;;;;;;6217696;28;20065;-80
2023/06/08 16:47:00;;;;;;;5.40;4.90;;;;;;;;;;6225994;28;20046;-80
2023/06/08 16:50:03;;;;;;;6.13;5.63;;;;;;;;;;6231072;28;20045;-76
2023/06/08 16:53:05;;;;;;;5.03;4.50;;;;;;;;;;6226266;28;20492;-78
2023/06/08 16:56:07;;;;;;;5.47;4.93;;;;;;;;;;6224516;28;20064;-76
2023/06/08 16:59:09;;;;;;;5.43;4.70;;;;;;;;;;6226679;28;20503;-79
2023/06/08 17:02:15;;;;;;;5.30;4.80;;;;;;;;;;6225117;28;20049;-78
2023/06/08 17:05:17;;;;;;;6.18;5.18;;;;;;;;;;6221903;28;20412;-79
2023/06/08 17:08:19;;;;;;;5.30;4.80;;;;;;;;;;6223103;28;20127;-80
2023/06/08 17:11:21;;;;;;;5.43;4.93;;;;;;;;;;6218835;28;20045;-78
2023/06/08 17:14:23;;;;;;;5.50;5.00;;;;;;;;;;6233938;28;20042;-81
2023/06/08 17:17:24;;;;;;;5.27;4.60;;;;;;;;;;6237117;28;20042;-79
2023/06/08 17:20:26;;;;;;;5.60;5.10;;;;;;;;;;6232376;28;20056;-78
2023/06/08 17:23:28;;;;;;;5.35;4.82;;;;;;;;;;6222612;28;20049;-78
2023/06/08 17:26:30;;;;;;;5.47;4.97;;;;;;;;;;6224108;28;20041;-77
2023/06/08 17:29:31;;;;;;;8.67;4.90;;;;;;;;;;6220177;28;20053;-78
2023/06/08 17:32:33;;;;;;;6.67;5.90;;;;;;;;;;6212262;28;20640;-78
2023/06/08 17:35:35;;;;;;;7.13;5.60;;;;;;;;;;6222331;28;20068;-78
2023/06/08 17:38:37;;;;;;;5.45;4.95;;;;;;;;;;6216205;28;20100;-79
2023/06/08 17:41:39;;;;;;;4.80;4.30;;;;;;;;;;6205454;28;20415;-79
2023/06/08 17:44:40;;;;;;;5.20;4.15;;;;;;;;;;6225697;28;20054;-78
2023/06/08 17:47:42;;;;;;;4.75;4.35;;;;;;;;;;6225907;28;20366;-78
2023/06/08 17:50:44;;;;;;;5.00;4.50;;;;;;;;;;6225145;28;20041;-78
2023/06/08 17:53:46;;;;;;;4.63;4.23;;;;;;;;;;6221576;28;20119;-79
2023/06/08 17:56:47;;;;;;;4.32;3.83;;;;;;;;;;6219362;28;20437;-77
2023/06/08 17:59:50;;;;;;;3.65;3.35;;;;;;;;;;6193278;28;20043;-79
2023/06/08 18:02:52;;;;;;;;;;;;;;;;;;6221827;28;20048;-79
2023/06/08 18:05:53;;;;;;;4.10;3.70;;;;;;;;;;6215352;28;19928;-77
2023/06/08 18:08:56;;;;;;;4.50;4.10;;;;;;;;;;6228880;28;20046;-80
2023/06/08 18:11:57;;;;;;;5.65;4.65;;;;;;;;;;6224748;28;20064;-80
2023/06/08 18:14:59;;;;;;;5.25;4.72;;;;;;;;;;6227449;28;20536;-79